Time;durP1;ratioP1;P1;durP2;ratioP2;P2;SDS_P1;SDS_P2;PMS_P1;PMS_P2;Temp;Humidity;BMP_temperature;BMP_pressure;BME280_temperature;BME280_humidity;BME280_pressure;Samples;Min_cycle;Max_cycle;Signal;HPM_P1;HPM_P2
2022/06/10 00:01:03;;;;;;;;;5.00;5.00;;;;;20.63;51.32;101737.56;4997672;28;46087;-70
2022/06/10 00:03:29;;;;;;;;;4.00;3.25;;;;;20.55;51.04;101732.53;4998195;28;45212;-69
2022/06/10 00:06:00;;;;;;;;;5.00;3.25;;;;;20.60;51.66;101734.09;4978093;28;45802;-69
2022/06/10 00:08:30;;;;;;;;;5.00;3.75;;;;;20.51;51.59;101722.84;4981355;28;45450;-69
2022/06/10 00:10:56;;;;;;;;;7.75;5.75;;;;;20.51;51.81;101736.41;4985459;28;47278;-70
2022/06/10 00:13:24;;;;;;;;;6.75;4.75;;;;;20.54;52.18;101736.19;4998558;28;45314;-69
2022/06/10 00:15:50;;;;;;;;;5.00;4.00;;;;;20.53;51.57;101734.47;4989385;28;45410;-69
2022/06/10 00:18:17;;;;;;;;;5.75;3.50;;;;;20.51;52.11;101736.41;4997129;28;45478;-69
2022/06/10 00:20:43;;;;;;;;;6.75;3.50;;;;;20.42;52.24;101722.50;4994613;28;45402;-70
2022/06/10 00:23:09;;;;;;;;;4.50;4.00;;;;;20.42;52.20;101717.09;4979374;28;45647;-69
2022/06/10 00:25:34;;;;;;;;;3.00;3.00;;;;;20.47;52.38;101737.53;4998793;28;45367;-69
2022/06/10 00:28:00;;;;;;;;;5.25;4.00;;;;;20.43;52.24;101729.66;4998769;28;45331;-69
2022/06/10 00:30:28;;;;;;;;;3.00;3.00;;;;;20.45;52.32;101738.59;4998410;28;46488;-69
2022/06/10 00:32:55;;;;;;;;;5.50;4.50;;;;;20.40;52.35;101721.69;4981166;28;45472;-69
2022/06/10 00:35:20;;;;;;;;;3.00;3.00;;;;;20.39;52.12;101728.09;4996969;28;45328;-69
2022/06/10 00:37:45;;;;;;;;;5.00;4.00;;;;;20.41;52.61;101735.16;4998580;28;45289;-69
2022/06/10 00:40:18;;;;;;;;;4.00;4.00;;;;;20.34;52.55;101723.81;4998182;28;45240;-70
2022/06/10 00:42:44;;;;;;;;;6.50;4.75;;;;;20.38;52.79;101734.47;4997492;28;45252;-69
2022/06/10 00:45:47;;;;;;;;;3.00;3.00;;;;;20.34;52.53;101729.22;4998416;28;45401;-69
2022/06/10 00:48:16;;;;;;;;;3.25;3.25;;;;;20.28;52.83;101724.19;4996380;28;45668;-69
2022/06/10 00:50:42;;;;;;;;;4.25;3.50;;;;;20.31;52.86;101723.13;4996459;28;48970;-70
2022/06/10 00:53:12;;;;;;;;;5.00;3.75;;;;;20.25;52.61;101716.22;4980580;28;45255;-69
2022/06/10 00:55:39;;;;;;;;;4.50;4.00;;;;;20.32;52.63;101720.31;4992274;28;45386;-69
2022/06/10 00:58:11;;;;;;;;;3.50;2.00;;;;;20.28;52.99;101709.72;4995164;28;45478;-69
2022/06/10 01:00:38;;;;;;;;;5.75;5.00;;;;;20.23;52.60;101710.03;4998384;28;45521;-69
2022/06/10 01:03:04;;;;;;;;;5.25;4.00;;;;;20.28;52.83;101723.28;4980023;28;45777;-69
2022/06/10 01:05:29;;;;;;;;;4.75;3.75;;;;;20.25;52.76;101716.22;4998444;28;45325;-69
2022/06/10 01:08:03;;;;;;;;;6.00;4.00;;;;;20.23;52.61;101712.72;4995819;28;45355;-69
2022/06/10 01:10:58;;;;;;;;;4.00;3.75;;;;;20.23;52.83;101715.44;4997753;28;46283;-69
2022/06/10 01:13:29;;;;;;;;;3.75;3.75;;;;;20.18;52.82;101699.44;4993541;28;45607;-70
2022/06/10 01:16:07;;;;;;;;;4.00;3.00;;;;;20.23;52.81;101715.44;4988300;28;45513;-69
2022/06/10 01:19:09;;;;;;;;;5.00;3.50;;;;;20.22;52.96;101708.25;4989156;28;45534;-70
2022/06/10 01:21:51;;;;;;;;;3.00;3.00;;;;;20.10;52.82;101696.28;4987764;28;45293;-69
2022/06/10 01:24:56;;;;;;;;;4.00;4.00;;;;;20.23;53.06;101714.53;4996329;28;45363;-69
2022/06/10 01:27:48;;;;;;;;;4.00;4.00;;;;;20.17;53.07;101708.53;4981576;28;45256;-69
2022/06/10 01:30:35;;;;;;;;;4.25;4.00;;;;;20.21;53.02;101722.75;4997905;28;45445;-69
2022/06/10 01:33:34;;;;;;;;;6.00;3.50;;;;;20.22;52.87;101713.69;4995740;28;46505;-69
2022/06/10 01:36:27;;;;;;;;;6.00;6.00;;;;;20.22;53.07;101713.69;4992685;28;45486;-69
2022/06/10 01:39:25;;;;;;;;;4.00;4.00;;;;;20.20;53.02;101710.19;4996679;28;45594;-69
2022/06/10 01:41:59;;;;;;;;;3.00;3.00;;;;;20.18;53.00;101714.84;4997407;28;45295;-69
2022/06/10 01:44:35;;;;;;;;;4.75;4.75;;;;;20.07;53.45;101692.88;4997605;28;45251;-69
2022/06/10 01:47:12;;;;;;;;;4.50;4.50;;;;;20.11;52.97;101711.59;4996575;28;45496;-70
2022/06/10 01:49:48;;;;;;;;;4.25;4.25;;;;;20.07;53.19;101709.16;4997544;28;45350;-69
2022/06/10 01:52:19;;;;;;;;;4.50;3.00;;;;;20.04;53.38;101714.75;4979973;28;45818;-69
2022/06/10 01:55:05;;;;;;;;;3.50;3.50;;;;;20.05;53.36;101725.50;4979837;28;47127;-69
2022/06/10 01:57:47;;;;;;;;;2.75;2.75;;;;;20.00;53.25;101711.34;4989450;28;45213;-69
2022/06/10 02:00:26;;;;;;;;;5.00;3.75;;;;;20.05;53.33;101721.91;4985960;28;45367;-69
2022/06/10 02:03:10;;;;;;;;;6.00;5.00;;;;;20.04;53.39;101722.88;4997382;28;45449;-69
2022/06/10 02:05:42;;;;;;;;;3.50;3.50;;;;;20.01;53.51;101718.47;4997160;28;46603;-69
2022/06/10 02:08:37;;;;;;;;;4.00;3.50;;;;;20.04;53.21;101726.44;4993848;28;45462;-69
2022/06/10 02:11:07;;;;;;;;;5.00;3.50;;;;;20.02;53.60;101733.78;5007083;28;45436;-69
2022/06/10 02:13:40;;;;;;;;;4.00;4.00;;;;;19.99;53.57;101720.41;4996132;28;45442;-69
2022/06/10 02:16:11;;;;;;;;;6.25;4.00;;;;;19.96;53.57;101720.59;4985906;28;45386;-69
2022/06/10 02:18:49;;;;;;;;;6.50;3.25;;;;;19.96;53.50;101720.59;4988690;28;45356;-69
2022/06/10 02:21:47;;;;;;;;;6.00;4.00;;;;;19.98;53.50;101727.69;4984210;28;45189;-69
2022/06/10 02:24:35;;;;;;;;;3.25;3.25;;;;;19.99;53.57;101724.00;4997140;28;45363;-69
2022/06/10 02:27:07;;;;;;;;;3.75;3.50;;;;;19.93;53.23;101716.22;4977315;28;45948;-70
2022/06/10 02:29:40;;;;;;;;;3.50;3.50;;;;;19.92;53.48;101708.19;4997299;28;45318;-69
2022/06/10 02:32:06;;;;;;;;;4.00;4.00;;;;;19.96;53.62;101723.28;4997052;28;45496;-69
2022/06/10 02:34:32;;;;;;;;;4.50;2.00;;;;;19.91;53.62;101719.97;4996895;28;45456;-69
2022/06/10 02:37:29;;;;;;;;;3.25;3.25;;;;;19.92;53.78;101722.59;4996028;28;46167;-69
2022/06/10 02:40:04;;;;;;;;;6.00;5.00;;;;;19.93;53.46;101728.88;4996167;28;45331;-69
2022/06/10 02:43:10;;;;;;;;;5.25;3.00;;;;;19.94;53.64;101741.47;4996995;28;45432;-69
2022/06/10 02:45:47;;;;;;;;;4.50;3.00;;;;;19.92;53.52;101728.00;4967596;28;45630;-69
2022/06/10 02:48:37;;;;;;;;;3.25;2.50;;;;;19.91;53.55;101741.66;4994548;28;45325;-69
2022/06/10 02:51:03;;;;;;;;;2.25;2.25;;;;;19.89;53.62;101741.72;4989874;28;45333;-69
2022/06/10 02:53:29;;;;;;;;;5.75;4.00;;;;;19.89;53.54;101741.72;4979246;28;45465;-70
2022/06/10 02:55:54;;;;;;;;;6.00;5.00;;;;;19.83;53.51;101727.66;4988281;28;45343;-69
2022/06/10 03:01:13;;;;;;;;;5.00;5.00;;;;;19.87;53.64;101751.78;4995619;28;45359;-69
2022/06/10 03:04:10;;;;;;;;;4.75;3.50;;;;;19.85;53.69;101748.28;4977184;28;45450;-69
2022/06/10 03:06:48;;;;;;;;;5.00;4.25;;;;;19.82;53.65;101751.16;4980412;28;45181;-69
2022/06/10 03:09:33;;;;;;;;;6.00;4.00;;;;;19.81;53.71;101752.13;4996391;28;46459;-70
2022/06/10 03:12:15;;;;;;;;;4.00;4.00;;;;;19.80;53.73;101750.38;4974158;28;45410;-69
2022/06/10 03:14:43;;;;;;;;;6.00;3.00;;;;;19.79;53.71;101740.50;4985147;28;45249;-69
2022/06/10 03:17:43;;;;;;;;;3.75;3.00;;;;;19.77;53.61;101746.00;4991964;28;45620;-69
2022/06/10 03:20:16;;;;;;;;;5.75;3.00;;;;;19.69;53.53;101741.94;4985752;28;46374;-69
2022/06/10 03:22:57;;;;;;;;;5.75;4.50;;;;;19.74;53.55;101750.69;4994934;27;45550;-69
2022/06/10 03:25:35;;;;;;;;;2.75;2.75;;;;;19.74;53.91;101756.09;4997511;28;45269;-69
2022/06/10 03:28:15;;;;;;;;;5.25;4.00;;;;;19.73;53.79;101757.03;5000459;28;45511;-69
2022/06/10 03:31:02;;;;;;;;;4.50;2.00;;;;;19.70;53.65;101766.22;4978250;28;46673;-69
2022/06/10 03:33:37;;;;;;;;;4.50;4.50;;;;;19.70;53.82;101766.22;4999444;27;45728;-69
2022/06/10 03:36:09;;;;;;;;;6.25;4.00;;;;;19.65;53.82;101754.78;4997842;28;45216;-69
2022/06/10 03:38:40;;;;;;;;;5.25;5.00;;;;;19.69;53.92;101763.59;4980167;28;45525;-69
2022/06/10 03:41:06;;;;;;;;;4.00;4.00;;;;;19.65;54.16;101760.19;4997318;28;45388;-69
2022/06/10 03:43:35;;;;;;;;;5.50;5.50;;;;;19.56;54.13;101750.75;4998803;28;45431;-69
2022/06/10 03:46:06;;;;;;;;;7.00;3.00;;;;;19.63;54.30;101762.13;4991363;28;45347;-69
2022/06/10 03:48:36;;;;;;;;;3.50;3.50;;;;;19.62;54.30;101765.78;4996457;28;45506;-70
2022/06/10 03:51:03;;;;;;;;;4.25;3.25;;;;;19.54;54.19;101758.03;4977647;28;46884;-69
2022/06/10 03:53:29;;;;;;;;;6.25;6.25;;;;;19.57;54.24;101759.72;4997633;28;45354;-69
2022/06/10 03:55:54;;;;;;;;;6.00;4.25;;;;;19.58;54.47;101766.91;4990882;28;45352;-69
2022/06/10 03:58:20;;;;;;;;;2.00;1.75;;;;;19.53;54.29;101756.31;4981445;28;45335;-69
2022/06/10 04:00:46;;;;;;;;;5.00;4.50;;;;;19.52;54.13;101759.97;4997985;28;46012;-69
2022/06/10 04:03:12;;;;;;;;;4.00;4.00;;;;;19.51;54.50;101763.66;4999022;28;45434;-69
2022/06/10 04:05:38;;;;;;;;;4.50;3.25;;;;;19.48;54.15;101757.50;4998903;28;45399;-69
2022/06/10 04:08:04;;;;;;;;;2.00;2.00;;;;;19.47;54.62;101758.47;4981156;28;45325;-69
2022/06/10 04:10:30;;;;;;;;;4.00;3.25;;;;;19.33;54.59;101748.38;4996058;28;45694;-69
2022/06/10 04:12:56;;;;;;;;;3.75;3.75;;;;;19.39;54.61;101769.72;4998476;28;45438;-69
2022/06/10 04:15:27;;;;;;;;;3.50;3.50;;;;;19.33;54.47;101765.50;4998681;28;45228;-69
2022/06/10 04:17:54;;;;;;;;;3.50;3.00;;;;;19.35;54.68;101774.41;4984939;28;45318;-69
2022/06/10 04:20:22;;;;;;;;;4.00;4.00;;;;;19.37;54.78;101779.75;4998402;28;46360;-69
2022/06/10 04:22:47;;;;;;;;;4.00;3.00;;;;;19.32;54.85;101771.00;4997619;28;45214;-69
2022/06/10 04:25:13;;;;;;;;;3.75;3.75;;;;;19.29;54.69;101777.44;4981113;28;45346;-69
2022/06/10 04:27:39;;;;;;;;;5.50;5.50;;;;;19.25;55.00;101786.69;4997071;28;45540;-69
2022/06/10 04:30:07;;;;;;;;;4.50;4.50;;;;;19.22;54.74;101778.72;4980901;28;47353;-69
2022/06/10 04:32:33;;;;;;;;;4.00;3.00;;;;;19.19;55.13;101782.44;4996054;28;45370;-69
2022/06/10 04:34:58;;;;;;;;;3.25;3.25;;;;;19.19;54.80;101779.75;4999339;28;45661;-69
2022/06/10 04:37:25;;;;;;;;;6.00;5.00;;;;;19.16;54.94;101782.63;4998017;28;45560;-69
2022/06/10 04:39:50;;;;;;;;;5.25;5.25;;;;;19.18;55.09;101787.97;5001573;28;46541;-69
2022/06/10 04:42:15;;;;;;;;;6.00;5.50;;;;;19.15;55.15;101791.69;4995575;28;45861;-69
2022/06/10 04:44:41;;;;;;;;;6.25;3.75;;;;;19.10;55.42;101788.34;5003601;28;45466;-69
2022/06/10 04:47:07;;;;;;;;;4.00;4.00;;;;;19.00;55.51;101774.41;4980391;28;45362;-70
2022/06/10 04:49:35;;;;;;;;;6.00;4.75;;;;;19.11;55.18;101790.13;4974926;28;47215;-69
2022/06/10 04:52:00;;;;;;;;;5.25;5.00;;;;;19.10;55.60;101788.34;4996900;28;45441;-69
2022/06/10 04:54:26;;;;;;;;;3.75;3.75;;;;;19.06;55.18;101779.53;4998148;28;45454;-69
2022/06/10 04:56:51;;;;;;;;;4.75;4.25;;;;;19.04;55.70;101785.97;4980636;28;45700;-69
2022/06/10 04:59:16;;;;;;;;;6.75;5.00;;;;;19.02;56.15;101777.91;4980526;28;47266;-69
2022/06/10 05:01:42;;;;;;;;;4.25;4.00;;;;;19.00;55.74;101771.72;4995981;28;45448;-69
2022/06/10 05:04:07;;;;;;;;;7.00;5.25;;;;;19.05;55.97;101785.88;4997959;28;45340;-69
2022/06/10 05:06:33;;;;;;;;;5.00;5.00;;;;;19.04;56.04;101785.97;4998053;28;45661;-69
2022/06/10 05:08:58;;;;;;;;;4.00;4.00;;;;;19.02;55.83;101787.88;4997495;28;45469;-69
2022/06/10 05:11:23;;;;;;;;;5.00;3.25;;;;;19.02;56.04;101787.88;5004627;28;45240;-69
2022/06/10 05:13:49;;;;;;;;;5.75;5.00;;;;;18.96;56.12;101780.97;4997382;28;47210;-69
2022/06/10 05:16:14;;;;;;;;;3.00;3.00;;;;;18.94;56.27;101776.56;4985532;28;45444;-69
2022/06/10 05:18:40;;;;;;;;;4.25;3.25;;;;;18.87;56.02;101771.47;4993446;28;47165;-69
2022/06/10 05:21:05;;;;;;;;;4.00;4.00;;;;;18.87;56.26;101782.28;4996490;28;45339;-69
2022/06/10 05:23:31;;;;;;;;;4.75;3.25;;;;;18.89;56.52;101784.91;4998934;28;45435;-69
2022/06/10 05:25:56;;;;;;;;;3.00;3.00;;;;;18.77;56.72;101766.56;4998547;28;45327;-69
2022/06/10 05:28:22;;;;;;;;;6.00;3.25;;;;;18.87;56.56;101784.97;5005255;28;46191;-69
2022/06/10 05:30:48;;;;;;;;;4.00;3.00;;;;;18.88;56.71;101781.34;4995245;28;45654;-69
2022/06/10 05:33:14;;;;;;;;;3.75;3.75;;;;;18.91;57.01;101792.94;4997709;28;45269;-69
2022/06/10 05:35:42;;;;;;;;;6.00;4.00;;;;;18.87;57.14;101781.41;4979327;28;45441;-69
2022/06/10 05:38:07;;;;;;;;;4.75;4.75;;;;;18.84;57.07;101777.06;4979829;28;47443;-69
2022/06/10 05:40:34;;;;;;;;;4.00;4.00;;;;;18.88;57.29;101780.47;4980954;28;45365;-68
2022/06/10 05:43:00;;;;;;;;;6.25;4.75;;;;;18.94;57.28;101785.56;4996517;28;45353;-69
2022/06/10 05:45:26;;;;;;;;;3.00;3.00;;;;;18.93;57.33;101789.22;4978776;28;45833;-69
2022/06/10 05:47:58;;;;;;;;;4.50;3.00;;;;;18.87;57.34;101784.13;4993949;28;46194;-69
2022/06/10 05:50:28;;;;;;;;;6.25;3.50;;;;;18.86;57.35;101783.25;4995656;28;45471;-68
2022/06/10 05:52:54;;;;;;;;;3.50;3.50;;;;;18.88;57.74;101796.69;4993576;27;45596;-68
2022/06/10 05:55:21;;;;;;;;;4.25;3.25;;;;;18.90;57.45;101804.75;5032477;28;45588;-68
2022/06/10 05:57:48;;;;;;;;;4.50;3.00;;;;;18.87;57.49;101794.94;5015509;27;45570;-67
2022/06/10 06:00:18;;;;;;;;;2.25;2.25;;;;;18.88;57.50;101802.97;4979593;28;45726;-68
2022/06/10 06:02:43;;;;;;;;;4.75;3.75;;;;;18.92;57.33;101800.13;4993546;28;45447;-67
2022/06/10 06:05:10;;;;;;;;;5.50;3.00;;;;;19.02;57.78;101823.06;4994751;28;45324;-67
2022/06/10 06:07:38;;;;;;;;;3.50;3.25;;;;;19.02;57.28;101813.09;4977516;28;48594;-68
2022/06/10 06:10:05;;;;;;;;;4.00;2.75;;;;;19.01;57.68;101802.34;4991993;28;45525;-67
2022/06/10 06:12:30;;;;;;;;;2.25;2.25;;;;;19.07;57.67;101808.31;4990551;27;45458;-67
2022/06/10 06:14:56;;;;;;;;;7.25;3.75;;;;;19.14;58.03;101816.13;4998184;27;45619;-67
2022/06/10 06:17:22;;;;;;;;;1.25;1.25;;;;;19.14;57.39;101825.13;4994840;28;45453;-67
2022/06/10 06:19:48;;;;;;;;;4.00;4.00;;;;;19.15;57.55;101828.72;4992443;28;45315;-67
2022/06/10 06:22:13;;;;;;;;;3.00;2.75;;;;;19.05;57.78;101801.25;4994614;28;45642;-68
2022/06/10 06:24:39;;;;;;;;;3.25;3.25;;;;;19.24;57.74;101830.94;4996638;27;45615;-68
2022/06/10 06:27:07;;;;;;;;;4.75;3.25;;;;;19.27;57.71;101827.22;4978195;28;48239;-66
2022/06/10 06:29:32;;;;;;;;;2.50;2.50;;;;;19.30;57.84;101832.47;4978796;28;45489;-66
2022/06/10 06:31:58;;;;;;;;;3.25;3.00;;;;;19.22;58.10;101817.47;4992061;28;45800;-66
2022/06/10 06:34:25;;;;;;;;;5.75;3.00;;;;;19.30;57.74;101829.75;4996401;28;45308;-67
2022/06/10 06:36:54;;;;;;;;;3.00;3.00;;;;;19.26;57.89;101823.59;4991432;28;46180;-66
2022/06/10 06:39:23;;;;;;;;;3.75;3.75;;;;;19.22;58.03;101812.06;4991068;27;45345;-66
2022/06/10 06:41:48;;;;;;;;;2.75;2.00;;;;;19.31;58.12;101828.78;4972288;28;45641;-66
2022/06/10 06:44:14;;;;;;;;;2.50;2.00;;;;;19.38;57.66;101839.22;4989758;27;45555;-67
2022/06/10 06:46:41;;;;;;;;;4.00;2.50;;;;;19.31;57.47;101815.25;5028987;27;45482;-67
2022/06/10 06:49:17;;;;;;;;;2.75;1.50;;;;;19.49;57.71;101844.06;5010830;27;46540;-67
2022/06/10 06:51:42;;;;;;;;;1.50;1.50;;;;;19.40;57.90;101822.91;5010714;27;45505;-68
2022/06/10 06:54:09;;;;;;;;;2.00;2.00;;;;;19.45;57.64;101826.25;4983871;28;45207;-67
2022/06/10 06:56:34;;;;;;;;;1.50;0.75;;;;;19.48;57.80;101823.38;4988269;28;46143;-67
2022/06/10 06:59:00;;;;;;;;;2.75;2.00;;;;;19.46;57.71;101825.28;4966491;28;45926;-66
2022/06/10 07:01:25;;;;;;;;;4.00;2.00;;;;;19.54;57.42;101827.59;4997175;28;45590;-66
2022/06/10 07:03:51;;;;;;;;;1.25;1.25;;;;;19.63;57.69;101844.22;4998214;27;45638;-66
2022/06/10 07:06:16;;;;;;;;;3.00;3.00;;;;;19.68;57.65;101837.69;5046593;27;46089;-67
2022/06/10 07:08:42;;;;;;;;;3.75;3.00;;;;;19.61;57.84;101827.19;4995667;27;45494;-66
2022/06/10 07:11:08;;;;;;;;;2.75;2.50;;;;;19.69;57.59;101828.59;4980942;28;45362;-67
2022/06/10 07:13:35;;;;;;;;;1.25;1.25;;;;;19.76;57.24;101839.06;4981581;28;45519;-67
2022/06/10 07:16:02;;;;;;;;;2.00;1.50;;;;;19.78;57.19;101841.72;4995261;28;46831;-67
2022/06/10 07:18:29;;;;;;;;;4.00;2.75;;;;;19.72;57.31;101829.31;4999536;28;45200;-66
2022/06/10 07:20:55;;;;;;;;;3.00;2.00;;;;;19.70;56.97;101816.81;4994776;28;45378;-66
2022/06/10 07:23:20;;;;;;;;;2.75;2.00;;;;;19.79;57.23;101832.59;4998343;28;45427;-66
2022/06/10 07:25:46;;;;;;;;;2.00;2.00;;;;;19.83;57.33;101833.31;4980596;28;47953;-67
2022/06/10 07:28:13;;;;;;;;;5.50;4.00;;;;;19.89;57.04;101825.72;4980585;28;45493;-70
2022/06/10 07:30:39;;;;;;;;;2.00;2.00;;;;;19.92;56.88;101825.56;4998702;28;45553;-70
2022/06/10 07:33:05;;;;;;;;;2.25;2.00;;;;;20.02;57.06;101830.50;4975806;28;45490;-70
2022/06/10 07:35:31;;;;;;;;;1.00;1.00;;;;;19.96;56.63;101821.75;4979784;28;47038;-70
2022/06/10 07:37:58;;;;;;;;;2.00;2.00;;;;;20.07;56.57;101841.94;4997999;28;45625;-70
2022/06/10 07:43:17;;;;;;;;;5.00;2.50;;;;;20.21;56.29;101861.03;5002024;27;45479;-70
2022/06/10 07:45:42;;;;;;;;;1.00;1.00;;;;;20.18;56.40;101851.25;4991449;28;48373;-70
2022/06/10 07:48:10;;;;;;;;;1.25;1.25;;;;;20.25;56.23;101853.63;4999542;27;45312;-71
2022/06/10 07:50:36;;;;;;;;;3.50;2.00;;;;;20.07;56.41;101813.00;4984739;28;48213;-70
2022/06/10 07:53:01;;;;;;;;;2.75;2.25;;;;;20.20;56.24;101828.56;4992720;28;45536;-70
2022/06/10 07:55:26;;;;;;;;;3.00;0.75;;;;;20.38;56.23;101846.56;4978653;28;51986;-70
2022/06/10 07:57:52;;;;;;;;;2.00;2.00;;;;;20.43;55.85;101844.44;5009288;27;45449;-70
2022/06/10 08:00:19;;;;;;;;;3.50;2.25;;;;;20.39;55.77;101831.16;4997814;28;46546;-69
2022/06/10 08:02:44;;;;;;;;;2.50;2.50;;;;;20.52;56.61;101840.34;4996502;28;45629;-67
2022/06/10 08:05:14;;;;;;;;;4.25;3.50;;;;;20.53;56.37;101834.81;5056500;27;45433;-69
2022/06/10 08:07:39;;;;;;;;;1.00;1.00;;;;;20.61;56.16;101839.78;4995173;28;45714;-69
2022/06/10 08:10:08;;;;;;;;;3.00;2.50;;;;;20.70;56.08;101839.31;4997697;28;45308;-71
2022/06/10 08:12:33;;;;;;;;;2.00;2.00;;;;;20.70;55.50;101833.88;4978042;28;45888;-70
2022/06/10 08:14:59;;;;;;;;;4.00;2.00;;;;;20.75;55.93;101835.44;4988226;28;45775;-70
2022/06/10 08:17:24;;;;;;;;;1.75;1.00;;;;;20.81;54.90;101833.25;4996693;27;46326;-70
2022/06/10 08:19:50;;;;;;;;;1.00;1.00;;;;;20.88;55.03;101831.94;4996925;27;45356;-70
2022/06/10 08:22:34;;;;;;;;;4.00;2.00;;;;;20.86;54.89;101819.41;5013989;27;45439;-70
2022/06/10 08:25:00;;;;;;;;;1.00;1.00;;;;;20.95;54.94;101828.84;4988338;28;45348;-70
2022/06/10 08:27:27;;;;;;;;;3.25;1.00;;;;;21.07;54.17;101836.28;4997304;28;45733;-70
2022/06/10 08:29:53;;;;;;;;;1.50;1.00;;;;;21.04;54.95;101820.19;4997925;28;45395;-70
2022/06/10 08:32:19;;;;;;;;;2.75;2.75;;;;;21.19;53.89;101840.97;5008284;27;45486;-70
2022/06/10 08:34:44;;;;;;;;;2.00;2.00;;;;;20.89;53.85;101773.97;5002612;27;46311;-70
2022/06/10 08:37:10;;;;;;;;;4.00;2.25;;;;;21.29;54.21;101830.44;4977736;28;45503;-70
2022/06/10 08:39:36;;;;;;;;;4.25;4.00;;;;;21.18;54.15;101805.78;4991815;28;45699;-70
2022/06/10 08:42:13;;;;;;;;;1.00;1.00;;;;;21.31;53.57;101811.34;4991539;27;45489;-70
2022/06/10 08:44:51;;;;;;;;;1.75;1.50;;;;;21.45;53.76;101833.09;4984111;28;46190;-70
2022/06/10 08:47:40;;;;;;;;;3.00;1.75;;;;;21.43;53.43;101819.63;4985886;28;45570;-71
2022/06/10 08:50:18;;;;;;;;;3.00;1.00;;;;;21.52;52.98;101822.75;4985908;28;45367;-70
2022/06/10 08:52:57;;;;;;;;;2.25;1.00;;;;;21.52;52.86;101825.47;4996286;28;45363;-71
2022/06/10 08:56:00;;;;;;;;;1.00;1.00;;;;;21.55;52.74;101807.16;4990739;27;46335;-70
2022/06/10 08:58:39;;;;;;;;;2.00;2.00;;;;;21.59;52.80;101813.28;4990044;28;45590;-71
2022/06/10 09:01:17;;;;;;;;;6.00;4.75;;;;;21.68;52.55;101828.13;4997024;28;45353;-70
2022/06/10 09:04:07;;;;;;;;;2.25;1.25;;;;;21.70;52.06;101831.59;4990100;28;45559;-70
2022/06/10 09:06:45;;;;;;;;;0.00;0.00;;;;;21.72;51.71;101829.66;4996906;28;46677;-70
2022/06/10 09:09:14;;;;;;;;;1.00;1.00;;;;;21.73;51.26;101835.00;4996597;28;45443;-71
2022/06/10 09:11:42;;;;;;;;;1.00;1.00;;;;;21.76;51.45;101825.81;4995368;28;45517;-70
2022/06/10 09:14:20;;;;;;;;;0.50;0.50;;;;;21.70;51.37;101813.50;4978182;27;45456;-70
2022/06/10 09:17:27;;;;;;;;;0.25;0.25;;;;;21.71;50.56;101804.34;4971070;28;47674;-70
2022/06/10 09:20:11;;;;;;;;;2.00;0.75;;;;;21.85;51.18;101819.78;4974107;28;46163;-70
2022/06/10 09:22:43;;;;;;;;;0.00;0.00;;;;;21.87;50.86;101827.84;5014189;27;45564;-70
2022/06/10 09:25:15;;;;;;;;;1.00;0.00;;;;;21.88;50.50;101818.72;4979448;28;45900;-70
2022/06/10 09:27:44;;;;;;;;;1.00;1.00;;;;;21.90;50.21;101819.50;4997106;28;46271;-70
2022/06/10 09:30:13;;;;;;;;;1.00;1.00;;;;;21.87;50.60;101809.69;4977085;28;46286;-70
2022/06/10 09:32:48;;;;;;;;;2.00;1.00;;;;;21.98;50.95;101811.72;4990280;28;46105;-70
2022/06/10 09:35:51;;;;;;;;;1.00;1.00;;;;;22.02;50.57;101819.59;4998207;28;45463;-70
2022/06/10 09:38:54;;;;;;;;;1.50;0.25;;;;;22.08;50.58;101826.47;4991220;28;46096;-71
2022/06/10 09:41:43;;;;;;;;;1.00;1.00;;;;;22.12;50.55;101825.31;4971942;28;45351;-70
2022/06/10 09:44:15;;;;;;;;;0.00;0.00;;;;;22.15;49.96;101819.69;4969430;27;45569;-70
2022/06/10 09:47:03;;;;;;;;;1.00;1.00;;;;;22.11;49.66;101818.13;4994355;27;45483;-70
2022/06/10 09:49:55;;;;;;;;;1.00;1.00;;;;;22.15;50.05;101822.41;4979256;28;46932;-71
2022/06/10 09:52:29;;;;;;;;;1.50;0.50;;;;;22.26;49.99;101834.44;4972658;27;45598;-70
2022/06/10 09:55:37;;;;;;;;;2.00;0.50;;;;;22.08;50.37;101793.84;5001934;28;45342;-71
2022/06/10 09:58:20;;;;;;;;;0.00;0.00;;;;;22.32;49.89;101823.19;4954016;28;45352;-70
2022/06/10 10:01:10;;;;;;;;;1.25;1.25;;;;;22.34;50.17;101822.13;4998827;27;46365;-70
2022/06/10 10:03:44;;;;;;;;;2.00;1.75;;;;;22.39;49.92;101830.84;4993763;27;45425;-68
2022/06/10 10:06:30;;;;;;;;;0.75;0.50;;;;;22.43;49.66;101834.25;4995569;27;45451;-72
2022/06/10 10:09:36;;;;;;;;;0.75;0.75;;;;;22.46;49.67;101830.47;4995686;27;45412;-71
2022/06/10 10:12:43;;;;;;;;;2.00;1.00;;;;;22.47;49.37;101837.63;4982002;28;45589;-71
2022/06/10 10:15:24;;;;;;;;;1.00;1.00;;;;;22.48;50.29;101833.94;4966979;28;45671;-71
2022/06/10 10:17:52;;;;;;;;;1.00;1.00;;;;;22.50;49.64;101832.00;4978768;28;45778;-71
2022/06/10 10:20:45;;;;;;;;;1.00;1.00;;;;;22.51;49.37;101834.63;4976473;28;45461;-71
2022/06/10 10:23:22;;;;;;;;;1.00;1.00;;;;;22.50;49.12;101816.56;4995648;28;46370;-71
2022/06/10 10:25:48;;;;;;;;;2.00;2.00;;;;;22.49;49.44;101820.25;4995606;28;45535;-71
2022/06/10 10:28:21;;;;;;;;;1.00;1.00;;;;;22.62;49.91;101831.19;4979371;28;45204;-71
2022/06/10 10:31:15;;;;;;;;;1.00;1.00;;;;;22.67;49.81;101830.88;4996753;28;45296;-71
2022/06/10 10:33:41;;;;;;;;;0.00;0.00;;;;;22.70;50.12;101814.34;4996186;28;46082;-71
2022/06/10 10:36:17;;;;;;;;;2.00;2.00;;;;;22.71;49.96;101825.13;4982260;28;45336;-71
2022/06/10 10:38:45;;;;;;;;;1.00;1.00;;;;;22.70;49.50;101806.19;5001407;28;45241;-71
2022/06/10 10:41:45;;;;;;;;;1.00;1.00;;;;;22.85;49.94;101826.91;4981908;28;45806;-71
2022/06/10 10:44:35;;;;;;;;;2.00;2.00;;;;;22.92;49.73;101831.00;5001964;28;45404;-71
2022/06/10 10:47:15;;;;;;;;;0.25;0.25;;;;;22.97;50.04;101813.47;5002694;28;45358;-71
2022/06/10 10:50:06;;;;;;;;;2.00;2.00;;;;;22.99;49.44;101823.28;5000863;28;45382;-71
2022/06/10 10:52:32;;;;;;;;;1.75;1.75;;;;;23.01;49.70;101817.75;4988069;28;45315;-72
2022/06/10 10:55:18;;;;;;;;;2.75;2.00;;;;;23.00;49.53;101819.56;4979401;28;47000;-71
2022/06/10 10:57:54;;;;;;;;;2.00;2.00;;;;;23.00;49.70;101819.56;5001416;28;45418;-72
2022/06/10 11:00:19;;;;;;;;;1.00;1.00;;;;;23.00;49.46;101818.69;5002337;28;45515;-71
2022/06/10 11:02:54;;;;;;;;;1.50;1.50;;;;;22.97;49.98;101822.53;5003038;28;45358;-71
2022/06/10 11:05:56;;;;;;;;;1.25;1.25;;;;;22.97;50.02;101802.56;4989902;28;45836;-71
2022/06/10 11:08:38;;;;;;;;;2.00;1.25;;;;;23.07;50.24;101825.50;4963446;28;45408;-71
2022/06/10 11:11:12;;;;;;;;;1.25;1.25;;;;;23.07;50.67;101823.66;5003061;28;45252;-71
2022/06/10 11:13:40;;;;;;;;;3.50;1.50;;;;;23.12;49.93;101823.34;4991487;28;45424;-71
2022/06/10 11:16:23;;;;;;;;;1.00;1.00;;;;;23.13;49.97;101823.22;4979477;28;47048;-70
2022/06/10 11:18:51;;;;;;;;;5.00;2.25;;;;;23.06;49.75;101816.47;4992501;28;45442;-70
2022/06/10 11:21:16;;;;;;;;;1.50;1.50;;;;;23.09;49.75;101810.81;4981269;28;46056;-72
2022/06/10 11:23:54;;;;;;;;;1.75;1.25;;;;;23.11;49.24;101810.72;5000884;28;45486;-73
2022/06/10 11:26:22;;;;;;;;;2.25;2.25;;;;;23.18;49.76;101825.66;5002336;28;46293;-72
2022/06/10 11:28:57;;;;;;;;;2.25;2.00;;;;;23.11;49.73;101813.44;5001539;28;45351;-72
2022/06/10 11:31:28;;;;;;;;;2.00;2.00;;;;;23.22;50.14;101826.31;4990012;28;45318;-72
2022/06/10 11:33:58;;;;;;;;;1.00;1.00;;;;;23.16;49.39;101827.59;4978196;28;45789;-72
2022/06/10 11:36:28;;;;;;;;;2.00;2.00;;;;;23.20;49.72;101825.53;4980135;28;47401;-73
2022/06/10 11:39:14;;;;;;;;;3.00;1.00;;;;;23.09;49.79;101793.63;4997172;27;45726;-73
2022/06/10 11:41:40;;;;;;;;;1.00;1.00;;;;;23.18;49.93;101817.47;4997765;28;45389;-72
2022/06/10 11:44:20;;;;;;;;;2.00;2.00;;;;;23.14;49.88;101805.06;4989940;28;45669;-73
2022/06/10 11:47:04;;;;;;;;;2.50;2.00;;;;;23.19;49.64;101810.16;4988004;27;45532;-72
2022/06/10 11:49:57;;;;;;;;;3.00;2.00;;;;;23.24;50.25;101814.34;4975019;28;45606;-72
2022/06/10 11:53:06;;;;;;;;;4.00;3.00;;;;;23.23;49.32;101823.47;4989505;28;45443;-72
2022/06/10 11:55:37;;;;;;;;;1.75;1.00;;;;;23.18;49.88;101809.31;5016844;28;45919;-72
2022/06/10 12:01:04;;;;;;;;;1.75;1.25;;;;;23.28;49.77;101812.28;5000980;28;45680;-72